Time;durP1;ratioP1;P1;durP2;ratioP2;P2;SDS_P1;SDS_P2;PMS_P1;PMS_P2;Temp;Humidity;BMP_temperature;BMP_pressure;BME280_temperature;BME280_humidity;BME280_pressure;Samples;Min_cycle;Max_cycle;Signal;HPM_P1;HPM_P2
2022/08/10 00:00:48;;;;;;;4.15;3.85;;;25.30;39.00;;;;;;5038461;28;20193;-85
2022/08/10 00:03:14;;;;;;;7.47;4.22;;;25.20;39.30;;;;;;5028241;28;20669;-87
2022/08/10 00:05:40;;;;;;;4.13;3.67;;;25.20;39.20;;;;;;5037735;28;20239;-85
2022/08/10 00:08:05;;;;;;;5.00;4.60;;;25.20;39.30;;;;;;5036831;28;20664;-85
2022/08/10 00:10:31;;;;;;;4.55;4.10;;;25.30;39.00;;;;;;5037763;28;20260;-85
2022/08/10 00:12:57;;;;;;;4.25;3.90;;;25.20;39.00;;;;;;5034300;28;20272;-85
2022/08/10 00:15:23;;;;;;;4.30;3.92;;;24.90;39.50;;;;;;5025483;28;20189;-86
2022/08/10 00:17:49;;;;;;;4.53;4.13;;;24.70;40.00;;;;;;5031118;28;20188;-86
2022/08/10 00:20:15;;;;;;;4.28;3.90;;;24.80;39.80;;;;;;5026151;28;20178;-87
2022/08/10 00:22:41;;;;;;;4.43;3.83;;;24.80;39.20;;;;;;5035171;28;20196;-85
2022/08/10 00:25:08;;;;;;;4.47;4.18;;;24.70;39.80;;;;;;5034286;28;20185;-86
2022/08/10 00:27:33;;;;;;;4.10;3.70;;;24.50;39.90;;;;;;5034542;28;20193;-87
2022/08/10 00:29:59;;;;;;;4.70;4.07;;;24.40;39.90;;;;;;5037615;28;20228;-85
2022/08/10 00:32:25;;;;;;;4.60;4.30;;;24.40;40.50;;;;;;5039913;28;20189;-85
2022/08/10 00:34:51;;;;;;;5.85;4.22;;;24.40;40.90;;;;;;5046029;28;20188;-89
2022/08/10 00:37:18;;;;;;;4.60;4.28;;;24.20;40.90;;;;;;5053523;28;20363;-87
2022/08/10 00:39:45;;;;;;;4.18;3.88;;;24.20;41.30;;;;;;5038616;28;20237;-86
2022/08/10 00:42:13;;;;;;;4.60;4.20;;;24.30;41.20;;;;;;5030022;28;20189;-87
2022/08/10 00:44:41;;;;;;;4.80;3.97;;;24.40;41.20;;;;;;5028099;28;20190;-84
2022/08/10 00:47:07;;;;;;;4.53;4.13;;;24.30;40.40;;;;;;5033485;28;20232;-85
2022/08/10 00:49:33;;;;;;;4.07;3.78;;;24.20;40.20;;;;;;5034533;28;20296;-85
2022/08/10 00:52:00;;;;;;;4.50;4.20;;;24.20;39.80;;;;;;5038104;28;20254;-87
2022/08/10 00:54:26;;;;;;;5.20;4.00;;;24.40;39.00;;;;;;5031583;28;20196;-86
2022/08/10 00:56:52;;;;;;;4.55;3.92;;;24.50;39.10;;;;;;5033376;28;20201;-85
2022/08/10 00:59:18;;;;;;;4.57;4.07;;;24.50;39.20;;;;;;5035920;28;20216;-86
2022/08/10 01:01:43;;;;;;;4.70;4.40;;;24.50;39.50;;;;;;5037381;28;20542;-85
2022/08/10 01:04:09;;;;;;;4.68;4.28;;;24.40;39.80;;;;;;5027893;28;20207;-85
2022/08/10 01:06:34;;;;;;;5.15;4.50;;;24.30;40.30;;;;;;5026193;28;20202;-85
2022/08/10 01:09:25;;;;;;;4.80;4.38;;;24.30;39.70;;;;;;5032693;28;20208;-85
2022/08/10 01:12:01;;;;;;;4.68;4.28;;;24.20;39.40;;;;;;5029497;28;20181;-85
2022/08/10 01:14:43;;;;;;;4.20;3.90;;;24.30;39.00;;;;;;5028553;28;20188;-85
2022/08/10 01:17:14;;;;;;;4.57;4.18;;;24.30;38.80;;;;;;5022443;28;20239;-85
2022/08/10 01:20:05;;;;;;;4.80;4.40;;;24.10;39.00;;;;;;5025100;28;20372;-85
2022/08/10 01:23:02;;;;;;;4.18;3.92;;;24.20;39.50;;;;;;5036344;28;20554;-85
2022/08/10 01:25:45;;;;;;;4.13;3.83;;;24.00;39.70;;;;;;5028272;28;20652;-88
2022/08/10 01:28:32;;;;;;;4.50;3.95;;;23.70;40.80;;;;;;5035919;28;20208;-87
2022/08/10 01:31:01;;;;;;;4.30;4.00;;;23.50;41.10;;;;;;5027038;28;20228;-86
2022/08/10 01:33:35;;;;;;;4.00;3.70;;;23.30;42.20;;;;;;5025042;28;20212;-85
2022/08/10 01:36:10;;;;;;;4.90;4.60;;;23.30;42.20;;;;;;5029693;28;20209;-85
2022/08/10 01:38:42;;;;;;;4.72;4.32;;;23.20;42.00;;;;;;5021883;28;20208;-86
2022/08/10 01:41:31;;;;;;;4.78;3.70;;;23.00;41.40;;;;;;5036133;28;20189;-85
2022/08/10 01:44:07;;;;;;;4.10;3.83;;;23.00;41.60;;;;;;5020138;28;20235;-88
2022/08/10 01:46:35;;;;;;;4.13;3.92;;;22.70;42.60;;;;;;5024928;28;20208;-86
2022/08/10 01:49:03;;;;;;;4.63;3.83;;;22.70;43.30;;;;;;5028882;28;20204;-86
2022/08/10 01:51:34;;;;;;;4.35;4.00;;;22.60;43.30;;;;;;5032730;28;20255;-86
2022/08/10 01:54:09;;;;;;;5.30;4.05;;;22.50;44.70;;;;;;5038907;28;20188;-86
2022/08/10 01:56:37;;;;;;;4.50;4.07;;;22.50;44.80;;;;;;5036048;28;20184;-86
2022/08/10 01:59:09;;;;;;;6.15;4.35;;;22.30;44.90;;;;;;5046265;28;20231;-87
2022/08/10 02:01:42;;;;;;;4.43;3.90;;;22.40;44.10;;;;;;5049827;28;20222;-88
2022/08/10 02:04:11;;;;;;;4.30;4.00;;;22.50;44.50;;;;;;5038570;28;20182;-87
2022/08/10 02:06:44;;;;;;;4.55;4.15;;;22.40;44.40;;;;;;5026817;28;20196;-86
2022/08/10 02:09:15;;;;;;;4.25;3.95;;;22.40;45.00;;;;;;5029027;28;20222;-86
2022/08/10 02:11:43;;;;;;;4.20;3.83;;;22.30;44.70;;;;;;5035094;28;20617;-85
2022/08/10 02:14:12;;;;;;;4.82;4.38;;;22.10;46.80;;;;;;5032485;28;20219;-84
2022/08/10 02:16:41;;;;;;;4.93;3.78;;;21.80;46.90;;;;;;5025050;28;20624;-87
2022/08/10 02:19:08;;;;;;;4.50;4.10;;;21.70;47.50;;;;;;5027419;28;20208;-84
2022/08/10 02:21:36;;;;;;;4.20;3.90;;;21.70;47.00;;;;;;5037985;28;20191;-87
2022/08/10 02:24:05;;;;;;;4.10;3.90;;;21.80;46.90;;;;;;5034802;28;20288;-85
2022/08/10 02:26:31;;;;;;;4.18;3.90;;;21.80;46.60;;;;;;5032441;28;20188;-85
2022/08/10 02:28:58;;;;;;;4.15;3.75;;;21.80;46.90;;;;;;5038647;28;20217;-87
2022/08/10 02:31:25;;;;;;;5.13;4.35;;;21.90;46.80;;;;;;5045788;28;20184;-86
2022/08/10 02:33:53;;;;;;;3.80;3.60;;;22.00;45.70;;;;;;5053888;28;20203;-89
2022/08/10 02:36:21;;;;;;;4.15;3.85;;;22.20;45.80;;;;;;5034933;28;20213;-85
2022/08/10 02:38:55;;;;;;;4.45;4.05;;;22.20;45.30;;;;;;5036565;28;20281;-85
2022/08/10 02:41:40;;;;;;;5.10;4.43;;;22.30;45.50;;;;;;5038412;28;20618;-86
2022/08/10 02:44:17;;;;;;;4.13;3.83;;;22.30;45.70;;;;;;5028384;28;20552;-85
2022/08/10 02:46:47;;;;;;;4.63;4.22;;;22.40;45.10;;;;;;5037270;28;20187;-87
2022/08/10 02:49:20;;;;;;;3.90;3.60;;;22.40;45.00;;;;;;5031178;28;20688;-87
2022/08/10 02:51:53;;;;;;;4.50;4.20;;;22.40;44.80;;;;;;5032437;28;20185;-85
2022/08/10 02:54:25;;;;;;;4.60;4.20;;;22.30;45.50;;;;;;5037518;28;20193;-84
2022/08/10 02:57:03;;;;;;;4.65;3.90;;;22.30;45.80;;;;;;5036539;28;20220;-85
2022/08/10 02:59:43;;;;;;;4.07;3.83;;;22.20;45.60;;;;;;5037558;28;20198;-86
2022/08/10 03:02:13;;;;;;;4.55;4.15;;;22.20;45.50;;;;;;5040745;28;20189;-85
2022/08/10 03:04:45;;;;;;;4.25;3.95;;;22.30;45.60;;;;;;5040660;28;20193;-86
2022/08/10 03:07:15;;;;;;;5.75;4.10;;;22.40;45.10;;;;;;5038548;28;20544;-86
2022/08/10 03:09:42;;;;;;;4.45;4.15;;;22.50;44.40;;;;;;5041317;28;20258;-85
2022/08/10 03:12:11;;;;;;;4.07;3.78;;;22.20;45.00;;;;;;5039208;28;20185;-84
2022/08/10 03:14:37;;;;;;;4.40;4.03;;;21.90;45.20;;;;;;5036076;28;20548;-85
2022/08/10 03:17:04;;;;;;;4.22;3.92;;;21.90;45.40;;;;;;5036268;28;20303;-84
2022/08/10 03:19:32;;;;;;;4.10;3.80;;;22.00;44.60;;;;;;5039633;28;20219;-85
2022/08/10 03:21:59;;;;;;;4.30;4.00;;;22.10;46.10;;;;;;5042835;28;20280;-86
2022/08/10 03:24:27;;;;;;;6.88;4.00;;;22.20;45.20;;;;;;5036753;28;20261;-89
2022/08/10 03:26:53;;;;;;;4.13;3.70;;;22.20;44.10;;;;;;5053287;28;20185;-87
2022/08/10 03:29:20;;;;;;;4.93;4.43;;;22.00;44.10;;;;;;5045148;28;20275;-84
2022/08/10 03:31:48;;;;;;;4.35;3.95;;;21.90;44.00;;;;;;5033774;28;20267;-85
2022/08/10 03:34:15;;;;;;;3.95;3.75;;;22.00;44.00;;;;;;5032446;28;20185;-84
2022/08/10 03:36:41;;;;;;;4.18;3.88;;;22.10;44.30;;;;;;5031213;28;20219;-86
2022/08/10 03:39:07;;;;;;;5.97;3.90;;;22.10;45.30;;;;;;5022270;28;20200;-85
2022/08/10 03:41:40;;;;;;;4.25;3.92;;;22.00;45.60;;;;;;5032641;28;20280;-85
2022/08/10 03:44:08;;;;;;;4.10;3.70;;;21.90;46.10;;;;;;5031194;28;20177;-85
2022/08/10 03:46:37;;;;;;;4.57;4.18;;;21.80;46.50;;;;;;5035771;28;20185;-85
2022/08/10 03:49:05;;;;;;;4.72;4.00;;;21.80;46.70;;;;;;5035324;28;20213;-85
2022/08/10 03:51:33;;;;;;;5.72;4.30;;;21.80;46.70;;;;;;5035687;28;20189;-85
2022/08/10 03:53:59;;;;;;;3.95;3.67;;;21.80;46.40;;;;;;5030384;28;20240;-88
2022/08/10 03:56:25;;;;;;;4.40;4.00;;;21.90;46.00;;;;;;5024429;28;20216;-85
2022/08/10 03:58:51;;;;;;;4.35;4.03;;;21.90;45.40;;;;;;5029167;28;20221;-85
2022/08/10 04:01:18;;;;;;;4.53;3.90;;;21.80;45.20;;;;;;5036859;28;20188;-85
2022/08/10 04:03:44;;;;;;;4.22;3.92;;;21.70;44.70;;;;;;5026427;28;20188;-86
2022/08/10 04:06:11;;;;;;;4.13;3.75;;;21.70;46.40;;;;;;5037410;28;20185;-85
2022/08/10 04:08:43;;;;;;;4.75;4.18;;;21.60;46.40;;;;;;5037604;28;20199;-86
2022/08/10 04:11:12;;;;;;;5.68;4.40;;;21.60;46.50;;;;;;5038259;28;20273;-85
2022/08/10 04:13:38;;;;;;;4.18;3.88;;;21.50;46.50;;;;;;5037775;28;20703;-86
2022/08/10 04:16:04;;;;;;;4.60;3.80;;;21.50;45.60;;;;;;5042824;28;20212;-86
2022/08/10 04:18:31;;;;;;;4.55;4.15;;;21.50;45.20;;;;;;5043458;28;20212;-85
2022/08/10 04:21:19;;;;;;;4.30;3.92;;;21.60;45.80;;;;;;5043979;28;20185;-85
2022/08/10 04:23:48;;;;;;;3.92;3.63;;;21.70;45.00;;;;;;5043033;28;20189;-86
2022/08/10 04:26:14;;;;;;;3.97;3.67;;;21.80;44.80;;;;;;5043565;28;20187;-85
2022/08/10 04:28:41;;;;;;;3.67;3.47;;;21.90;45.90;;;;;;5043487;28;20576;-84
2022/08/10 04:31:08;;;;;;;4.60;4.20;;;21.90;44.70;;;;;;5036605;28;20199;-84
2022/08/10 04:33:38;;;;;;;4.93;4.00;;;22.00;44.60;;;;;;5037422;28;20192;-84
2022/08/10 04:36:05;;;;;;;4.88;4.32;;;22.00;44.50;;;;;;5032465;28;20233;-84
2022/08/10 04:38:33;;;;;;;6.35;3.72;;;21.90;44.20;;;;;;5036312;28;20212;-84
2022/08/10 04:41:00;;;;;;;4.57;4.10;;;21.90;44.70;;;;;;5037849;28;20255;-84
2022/08/10 04:43:26;;;;;;;4.25;3.85;;;22.10;44.60;;;;;;5029215;28;20197;-85
2022/08/10 04:45:51;;;;;;;4.55;4.15;;;22.10;45.30;;;;;;5039736;28;20185;-84
2022/08/10 04:48:23;;;;;;;4.45;3.90;;;22.10;44.30;;;;;;5034534;28;20220;-84
2022/08/10 04:50:49;;;;;;;4.18;3.70;;;22.10;44.20;;;;;;5034773;28;20215;-84
2022/08/10 04:53:14;;;;;;;9.98;4.45;;;22.00;44.40;;;;;;5029162;28;20196;-85
2022/08/10 04:55:40;;;;;;;5.03;4.03;;;22.00;44.30;;;;;;5042886;28;20220;-84
2022/08/10 04:58:06;;;;;;;4.82;3.83;;;22.10;44.50;;;;;;5043247;28;20656;-84
2022/08/10 05:00:31;;;;;;;4.28;3.97;;;22.10;45.40;;;;;;5042788;28;20181;-85
2022/08/10 05:02:57;;;;;;;5.00;4.00;;;22.20;45.00;;;;;;5035493;28;20192;-84
2022/08/10 05:05:23;;;;;;;4.03;3.75;;;22.10;44.90;;;;;;5038688;28;20236;-83
2022/08/10 05:07:49;;;;;;;4.68;4.18;;;22.10;45.60;;;;;;5034641;28;20224;-85
2022/08/10 05:10:14;;;;;;;4.80;4.40;;;22.10;45.90;;;;;;5043644;28;20185;-84
2022/08/10 05:12:40;;;;;;;5.25;4.10;;;22.00;46.50;;;;;;5032450;28;20211;-84
2022/08/10 05:15:08;;;;;;;4.93;4.45;;;22.00;46.30;;;;;;5037685;28;20649;-85
2022/08/10 05:17:35;;;;;;;5.10;3.92;;;22.00;47.00;;;;;;5043511;28;20205;-84
2022/08/10 05:20:02;;;;;;;4.47;3.72;;;22.00;46.60;;;;;;5041686;28;20246;-84
2022/08/10 05:22:28;;;;;;;4.55;4.20;;;22.10;47.10;;;;;;5038350;28;20671;-85
2022/08/10 05:24:53;;;;;;;4.80;4.40;;;22.10;46.80;;;;;;5035936;28;20214;-85
2022/08/10 05:27:19;;;;;;;4.25;3.95;;;22.10;47.20;;;;;;5042222;28;20196;-87
2022/08/10 05:29:45;;;;;;;4.82;4.18;;;22.10;47.30;;;;;;5032262;28;20204;-85
2022/08/10 05:32:10;;;;;;;5.00;4.55;;;22.10;47.60;;;;;;5035486;28;20608;-85
2022/08/10 05:34:36;;;;;;;4.53;4.22;;;22.10;48.10;;;;;;5033855;28;20193;-84
2022/08/10 05:37:04;;;;;;;4.28;3.88;;;22.00;48.60;;;;;;5041684;28;20235;-85
2022/08/10 05:39:30;;;;;;;5.95;4.03;;;21.90;48.30;;;;;;5038287;28;20309;-86
2022/08/10 05:41:57;;;;;;;4.13;3.83;;;22.00;48.10;;;;;;5041632;28;20189;-84
2022/08/10 05:44:23;;;;;;;4.65;4.07;;;21.90;46.90;;;;;;5031208;28;20534;-85
2022/08/10 05:46:50;;;;;;;4.32;3.92;;;21.80;47.80;;;;;;5037945;28;20193;-84
2022/08/10 05:49:16;;;;;;;7.60;3.95;;;21.80;49.00;;;;;;5037543;28;20240;-84
2022/08/10 05:51:42;;;;;;;5.40;4.32;;;21.80;48.30;;;;;;5039379;28;20253;-85
2022/08/10 05:54:14;;;;;;;4.93;4.53;;;21.80;48.00;;;;;;5034757;28;20185;-84
2022/08/10 05:56:44;;;;;;;4.75;4.25;;;21.90;47.00;;;;;;5040513;28;20247;-85
2022/08/10 05:59:14;;;;;;;6.35;4.22;;;21.80;47.40;;;;;;5041810;28;20209;-85
2022/08/10 06:01:43;;;;;;;4.57;4.20;;;21.80;47.60;;;;;;5038494;28;20220;-84
2022/08/10 06:04:14;;;;;;;4.43;4.03;;;21.80;47.40;;;;;;5038241;28;20185;-85
2022/08/10 06:06:42;;;;;;;4.45;3.92;;;21.80;47.20;;;;;;5040890;28;20180;-84
2022/08/10 06:09:08;;;;;;;4.35;3.95;;;21.80;47.40;;;;;;5034562;28;20218;-85
2022/08/10 06:11:36;;;;;;;4.38;4.07;;;21.90;47.20;;;;;;5033902;28;20263;-84
2022/08/10 06:16:50;;;;;;;4.00;3.70;;;22.10;46.90;;;;;;5047007;28;20226;-87
2022/08/10 06:19:16;;;;;;;7.00;4.28;;;22.00;46.00;;;;;;5036670;28;20613;-83
2022/08/10 06:21:43;;;;;;;4.25;3.80;;;22.10;46.30;;;;;;5035197;28;20267;-84
2022/08/10 06:24:10;;;;;;;4.43;4.00;;;22.10;46.80;;;;;;5031374;28;20185;-84
2022/08/10 06:26:36;;;;;;;4.47;4.07;;;22.20;46.20;;;;;;5031913;28;20557;-84
2022/08/10 06:29:09;;;;;;;6.40;4.28;;;22.40;45.50;;;;;;5029154;28;20229;-84
2022/08/10 06:31:42;;;;;;;4.15;3.85;;;22.40;44.70;;;;;;5030878;28;20189;-83
2022/08/10 06:34:10;;;;;;;5.40;4.15;;;22.50;45.20;;;;;;5026224;28;20192;-84
2022/08/10 06:36:38;;;;;;;4.68;4.25;;;22.50;43.30;;;;;;5036428;28;20424;-84
2022/08/10 06:39:04;;;;;;;7.13;3.95;;;22.50;43.60;;;;;;5031440;28;20220;-86
2022/08/10 06:41:34;;;;;;;4.47;3.90;;;22.60;44.20;;;;;;5033435;28;20224;-85
2022/08/10 06:44:05;;;;;;;4.85;4.13;;;22.70;44.40;;;;;;5031552;28;20181;-86
2022/08/10 06:46:36;;;;;;;4.95;4.20;;;22.80;43.30;;;;;;5037496;28;20212;-83
2022/08/10 06:49:04;;;;;;;3.85;3.55;;;23.00;42.90;;;;;;5026296;28;20268;-85
2022/08/10 06:51:33;;;;;;;4.38;3.58;;;23.00;42.20;;;;;;5031950;28;20185;-82
2022/08/10 06:54:04;;;;;;;4.18;3.88;;;23.10;41.70;;;;;;5030761;28;20239;-84
2022/08/10 06:56:34;;;;;;;4.47;4.10;;;23.20;41.40;;;;;;5036975;28;20237;-83
2022/08/10 06:59:07;;;;;;;4.28;3.97;;;23.30;41.50;;;;;;5036351;28;20735;-85
2022/08/10 07:01:35;;;;;;;5.10;4.60;;;23.40;41.50;;;;;;5021214;28;20618;-85
2022/08/10 07:04:07;;;;;;;4.30;3.90;;;23.40;41.50;;;;;;5033476;28;20173;-85
2022/08/10 07:06:35;;;;;;;4.25;3.95;;;23.40;41.40;;;;;;5039842;28;20177;-84
2022/08/10 07:09:03;;;;;;;4.22;3.80;;;23.40;41.20;;;;;;5038225;28;20227;-83
2022/08/10 07:11:30;;;;;;;4.10;3.80;;;23.50;40.70;;;;;;5030031;28;20272;-85
2022/08/10 07:13:58;;;;;;;4.00;3.60;;;23.60;40.00;;;;;;5030431;28;20185;-86
2022/08/10 07:16:27;;;;;;;4.10;3.72;;;23.70;39.80;;;;;;5030804;28;20217;-86
2022/08/10 07:18:55;;;;;;;4.10;3.80;;;23.80;39.60;;;;;;5036616;28;20228;-84
2022/08/10 07:21:25;;;;;;;4.22;3.92;;;23.90;39.40;;;;;;5030737;28;20177;-85
2022/08/10 07:23:51;;;;;;;4.05;3.75;;;24.00;39.60;;;;;;5037247;28;20541;-84
2022/08/10 07:26:18;;;;;;;5.93;3.60;;;24.10;39.10;;;;;;5035633;28;20259;-84
2022/08/10 07:28:45;;;;;;;4.47;4.00;;;24.10;38.70;;;;;;5039454;28;20239;-85
2022/08/10 07:31:15;;;;;;;4.72;4.00;;;24.30;38.90;;;;;;5033209;28;20272;-85
2022/08/10 07:33:41;;;;;;;3.55;3.35;;;24.30;38.70;;;;;;5030318;28;20408;-84
2022/08/10 07:36:09;;;;;;;5.95;3.72;;;24.50;38.40;;;;;;5027669;28;20568;-84
2022/08/10 07:38:36;;;;;;;5.88;3.88;;;24.50;38.20;;;;;;5026253;28;20205;-84
2022/08/10 07:41:04;;;;;;;3.90;3.60;;;24.50;38.40;;;;;;5035638;28;20543;-85
2022/08/10 07:43:35;;;;;;;6.40;4.20;;;24.60;38.30;;;;;;5023732;28;20261;-84
2022/08/10 07:46:10;;;;;;;7.00;3.80;;;24.90;39.20;;;;;;5030817;28;20185;-86
2022/08/10 07:48:42;;;;;;;4.90;3.72;;;25.00;37.60;;;;;;5031590;28;20557;-83
2022/08/10 07:51:10;;;;;;;6.68;3.97;;;25.10;36.90;;;;;;5035227;28;20221;-85
2022/08/10 07:53:45;;;;;;;3.53;3.28;;;25.10;37.00;;;;;;5032693;28;20249;-86
2022/08/10 07:56:12;;;;;;;4.47;3.90;;;25.20;36.70;;;;;;5014737;28;20275;-85
2022/08/10 07:58:50;;;;;;;3.83;3.55;;;25.30;36.60;;;;;;5026754;28;20208;-85
2022/08/10 08:01:19;;;;;;;4.18;3.60;;;25.50;35.90;;;;;;5038750;28;20188;-84
2022/08/10 08:03:46;;;;;;;7.93;3.83;;;25.50;35.50;;;;;;5030704;28;20181;-83
2022/08/10 08:06:12;;;;;;;3.80;3.50;;;25.60;35.70;;;;;;5030104;28;20208;-85
2022/08/10 08:08:40;;;;;;;4.97;3.60;;;25.70;35.20;;;;;;5026321;28;20209;-83
2022/08/10 08:11:08;;;;;;;3.50;3.22;;;25.80;35.20;;;;;;5027695;28;20640;-85
2022/08/10 08:13:36;;;;;;;5.00;3.72;;;25.90;34.60;;;;;;5034000;28;20200;-86
2022/08/10 08:16:04;;;;;;;3.95;3.65;;;25.90;34.80;;;;;;5033670;28;20208;-84
2022/08/10 08:18:32;;;;;;;3.53;3.33;;;26.10;35.20;;;;;;5033174;28;20228;-85
2022/08/10 08:20:58;;;;;;;3.47;3.17;;;26.20;34.90;;;;;;5032861;28;20564;-87
2022/08/10 08:23:26;;;;;;;5.40;3.83;;;26.30;34.20;;;;;;5029931;28;20216;-86
2022/08/10 08:25:53;;;;;;;4.75;3.58;;;26.40;34.50;;;;;;5031242;28;20331;-86
2022/08/10 08:28:20;;;;;;;3.95;3.67;;;26.60;34.40;;;;;;5036570;28;20220;-84
2022/08/10 08:30:46;;;;;;;3.63;3.33;;;26.60;33.90;;;;;;5029568;28;20522;-84
2022/08/10 08:33:14;;;;;;;3.70;3.47;;;26.70;33.70;;;;;;5033113;28;20198;-85
2022/08/10 08:35:43;;;;;;;4.15;3.60;;;26.80;34.60;;;;;;5034216;28;20256;-84
2022/08/10 08:38:11;;;;;;;3.45;3.25;;;26.90;33.40;;;;;;5034983;28;20189;-84
2022/08/10 08:40:40;;;;;;;7.18;3.80;;;27.00;32.50;;;;;;5034876;28;20655;-86
2022/08/10 08:43:20;;;;;;;3.65;3.35;;;27.10;32.30;;;;;;5036428;28;20210;-84
2022/08/10 08:46:04;;;;;;;4.78;3.72;;;27.20;32.40;;;;;;5035078;28;20188;-84
2022/08/10 08:49:07;;;;;;;3.97;3.67;;;27.30;32.30;;;;;;5033633;28;20213;-83
2022/08/10 08:51:47;;;;;;;4.82;3.75;;;27.70;31.20;;;;;;5028462;28;20212;-84
2022/08/10 08:54:45;;;;;;;4.82;4.35;;;27.80;30.40;;;;;;5035204;28;20180;-85
2022/08/10 08:57:50;;;;;;;4.10;3.70;;;27.90;30.60;;;;;;5036128;28;20232;-86
2022/08/10 09:00:47;;;;;;;4.78;3.70;;;28.00;31.20;;;;;;5038061;28;20184;-87
2022/08/10 09:03:39;;;;;;;4.18;3.50;;;28.10;30.20;;;;;;5040683;28;20180;-88
2022/08/10 09:06:30;;;;;;;3.70;3.45;;;28.10;30.40;;;;;;5052289;28;20210;-89
2022/08/10 09:09:18;;;;;;;4.50;4.10;;;28.30;30.60;;;;;;5040203;28;20276;-84
2022/08/10 09:12:10;;;;;;;6.18;3.80;;;28.30;30.40;;;;;;5031584;28;20189;-86
2022/08/10 09:14:47;;;;;;;5.32;4.13;;;28.30;30.10;;;;;;5033948;28;20200;-85
2022/08/10 09:17:37;;;;;;;6.85;4.30;;;28.40;29.90;;;;;;5034630;28;20273;-84
2022/08/10 09:20:34;;;;;;;4.10;3.80;;;28.60;30.10;;;;;;5029050;28;20225;-84
2022/08/10 09:23:29;;;;;;;4.72;3.88;;;28.80;28.90;;;;;;5022518;28;20221;-84
2022/08/10 09:26:02;;;;;;;5.30;4.15;;;28.90;28.40;;;;;;5029304;28;20208;-83
2022/08/10 09:28:35;;;;;;;4.55;3.60;;;29.20;28.30;;;;;;5032609;28;20208;-84
2022/08/10 09:31:06;;;;;;;8.25;4.32;;;29.40;28.00;;;;;;5036776;28;20221;-83
2022/08/10 09:33:55;;;;;;;3.65;3.40;;;29.40;27.00;;;;;;5033577;28;20548;-84
2022/08/10 09:36:46;;;;;;;4.75;3.88;;;29.60;26.70;;;;;;5037679;28;20255;-84
2022/08/10 09:39:14;;;;;;;4.22;3.92;;;29.70;26.30;;;;;;5035618;28;20209;-85
2022/08/10 09:41:47;;;;;;;3.92;3.63;;;29.70;27.10;;;;;;5051274;28;20181;-86
2022/08/10 09:44:35;;;;;;;4.40;3.97;;;30.00;27.00;;;;;;5051066;28;20188;-86
2022/08/10 09:47:12;;;;;;;3.53;3.33;;;30.10;26.80;;;;;;5035001;28;20181;-84
2022/08/10 09:49:38;;;;;;;3.90;3.55;;;30.40;26.30;;;;;;5034003;28;20220;-84
2022/08/10 09:52:41;;;;;;;4.35;3.70;;;30.50;26.00;;;;;;5036128;28;20181;-84
2022/08/10 09:55:26;;;;;;;4.32;3.92;;;30.50;26.10;;;;;;5032809;28;20267;-84
2022/08/10 09:58:10;;;;;;;4.53;4.22;;;30.60;25.90;;;;;;5032248;28;20209;-84
2022/08/10 10:00:54;;;;;;;4.22;3.83;;;30.70;25.90;;;;;;5032650;28;20219;-85
2022/08/10 10:03:30;;;;;;;8.48;4.93;;;30.90;25.90;;;;;;5035002;28;20201;-86
2022/08/10 10:06:16;;;;;;;4.47;4.05;;;30.90;25.50;;;;;;5031321;28;20271;-85
2022/08/10 10:08:51;;;;;;;5.05;4.00;;;31.00;26.10;;;;;;5036777;28;20231;-86
2022/08/10 10:11:21;;;;;;;9.25;4.35;;;31.20;26.10;;;;;;5032345;28;20283;-85
2022/08/10 10:14:28;;;;;;;4.50;4.10;;;31.30;25.90;;;;;;5024784;28;20204;-85
2022/08/10 10:17:19;;;;;;;7.07;4.25;;;31.10;25.80;;;;;;5030221;28;20227;-85
2022/08/10 10:20:08;;;;;;;5.55;4.28;;;31.00;26.40;;;;;;5026687;28;20308;-85
2022/08/10 10:23:11;;;;;;;5.95;4.43;;;31.00;26.10;;;;;;5030309;28;20187;-85
2022/08/10 10:26:05;;;;;;;4.20;3.90;;;30.80;26.60;;;;;;5030406;28;20271;-84
2022/08/10 10:28:48;;;;;;;4.22;3.70;;;30.90;25.50;;;;;;5036465;28;20205;-85
2022/08/10 10:31:33;;;;;;;5.47;4.13;;;30.90;25.50;;;;;;5036645;28;20184;-86
2022/08/10 10:33:59;;;;;;;4.20;3.80;;;31.20;25.20;;;;;;5034216;28;20239;-85
2022/08/10 10:36:27;;;;;;;4.20;3.88;;;31.40;25.10;;;;;;5035316;28;20881;-87
2022/08/10 10:38:58;;;;;;;4.05;3.75;;;31.60;24.80;;;;;;5035235;28;20680;-85
2022/08/10 10:41:30;;;;;;;4.13;3.83;;;31.70;25.00;;;;;;5034785;28;20571;-86
2022/08/10 10:44:20;;;;;;;5.65;4.20;;;31.70;24.30;;;;;;5038403;28;20184;-85
2022/08/10 10:47:22;;;;;;;6.70;4.30;;;31.80;24.00;;;;;;5027288;28;20211;-84
2022/08/10 10:50:09;;;;;;;7.05;4.50;;;31.80;23.80;;;;;;5037308;28;20246;-84
2022/08/10 10:52:53;;;;;;;5.07;4.55;;;32.00;24.00;;;;;;5036400;28;20192;-85
2022/08/10 10:55:38;;;;;;;11.23;4.75;;;32.20;23.20;;;;;;5039883;28;20750;-85
2022/08/10 10:58:32;;;;;;;4.55;4.15;;;32.20;23.60;;;;;;5038432;28;20227;-86
2022/08/10 11:01:13;;;;;;;4.50;4.10;;;32.10;24.10;;;;;;5036488;28;20181;-85
2022/08/10 11:04:28;;;;;;;4.25;3.78;;;32.20;23.10;;;;;;5037813;28;20193;-85
2022/08/10 11:07:20;;;;;;;5.13;4.00;;;32.20;23.00;;;;;;4979818;28;20195;-85
2022/08/10 11:10:00;;;;;;;4.10;3.80;;;32.30;22.30;;;;;;4979485;28;20694;-85
2022/08/10 11:13:03;;;;;;;4.85;3.88;;;32.40;22.50;;;;;;5022319;28;20227;-85
2022/08/10 11:16:07;;;;;;;4.40;4.00;;;32.80;22.20;;;;;;5036116;28;20579;-85
2022/08/10 11:18:33;;;;;;;4.60;3.92;;;32.90;21.60;;;;;;5036100;28;20216;-85
2022/08/10 11:21:22;;;;;;;4.80;4.18;;;33.10;22.10;;;;;;5036657;28;20186;-83
2022/08/10 11:24:18;;;;;;;5.07;3.90;;;32.80;22.00;;;;;;5038291;28;20188;-84
2022/08/10 11:27:05;;;;;;;4.80;4.03;;;32.90;21.90;;;;;;5040545;28;20196;-85
2022/08/10 11:29:40;;;;;;;4.10;3.80;;;32.60;22.00;;;;;;5039934;28;20200;-85
2022/08/10 11:32:31;;;;;;;4.30;4.00;;;32.80;21.70;;;;;;5037233;28;20200;-85
2022/08/10 11:35:09;;;;;;;4.70;3.80;;;32.80;22.30;;;;;;5041813;28;20245;-85
2022/08/10 11:38:13;;;;;;;7.18;4.15;;;33.20;21.90;;;;;;5040804;28;20596;-85
2022/08/10 11:40:43;;;;;;;4.07;3.80;;;33.10;21.50;;;;;;5008266;28;20193;-85
2022/08/10 11:43:18;;;;;;;5.57;4.30;;;33.50;21.40;;;;;;5036491;28;20245;-86
2022/08/10 11:46:01;;;;;;;6.03;4.93;;;33.30;21.00;;;;;;5038727;28;20203;-85
2022/08/10 11:48:42;;;;;;;10.10;4.68;;;33.60;21.00;;;;;;5034607;28;20215;-85
2022/08/10 11:51:20;;;;;;;4.40;4.00;;;34.10;20.80;;;;;;5035733;28;20200;-86
2022/08/10 11:54:06;;;;;;;4.93;4.40;;;34.10;20.20;;;;;;5051144;28;20208;-87
2022/08/10 11:56:59;;;;;;;4.70;4.38;;;34.60;19.80;;;;;;5050716;28;20212;-84
2022/08/10 12:02:17;;;;;;;5.88;5.45;;;34.60;19.40;;;;;;5039796;28;20208;-84
2022/08/10 12:04:49;;;;;;;4.30;3.95;;;34.60;19.40;;;;;;5034143;28;20189;-84
2022/08/10 12:07:17;;;;;;;5.30;4.20;;;34.10;19.80;;;;;;5034723;28;20207;-84
2022/08/10 12:09:43;;;;;;;4.85;4.30;;;34.50;19.70;;;;;;5036761;28;20313;-86
2022/08/10 12:12:10;;;;;;;4.57;4.10;;;34.80;19.50;;;;;;5036157;28;20188;-86
2022/08/10 12:15:01;;;;;;;4.90;4.40;;;34.60;19.20;;;;;;5034604;28;20672;-84
2022/08/10 12:17:41;;;;;;;6.03;4.22;;;34.80;19.40;;;;;;5037341;28;20216;-85
2022/08/10 12:20:08;;;;;;;6.22;4.57;;;35.40;19.10;;;;;;5033568;28;20676;-86
2022/08/10 12:23:03;;;;;;;11.70;5.28;;;35.60;18.90;;;;;;5036465;28;20195;-84
2022/08/10 12:25:50;;;;;;;5.00;4.60;;;35.60;18.40;;;;;;5039864;28;20204;-87
2022/08/10 12:28:39;;;;;;;4.78;4.47;;;35.80;18.40;;;;;;5036409;28;20200;-85
2022/08/10 12:31:09;;;;;;;5.15;4.75;;;35.90;18.30;;;;;;5030594;28;20447;-85
2022/08/10 12:33:45;;;;;;;4.93;4.53;;;36.10;18.50;;;;;;5033855;28;20195;-87
2022/08/10 12:36:25;;;;;;;4.78;4.38;;;35.60;18.60;;;;;;5033324;28;20208;-86
2022/08/10 12:39:03;;;;;;;5.10;4.70;;;35.30;18.90;;;;;;5033254;28;20256;-85
2022/08/10 12:41:35;;;;;;;5.45;4.97;;;35.40;18.80;;;;;;5030756;28;20185;-85
2022/08/10 12:44:07;;;;;;;6.85;5.45;;;35.90;18.20;;;;;;5031013;28;20651;-86
2022/08/10 12:47:00;;;;;;;5.78;5.20;;;36.40;18.10;;;;;;5034814;28;20192;-85
2022/08/10 12:49:44;;;;;;;5.30;4.82;;;36.80;17.90;;;;;;5027808;28;20227;-86
2022/08/10 12:52:28;;;;;;;5.03;4.72;;;36.40;18.40;;;;;;5032795;28;20192;-85
2022/08/10 12:54:57;;;;;;;5.40;5.00;;;36.90;17.90;;;;;;5032479;28;20322;-85
2022/08/10 12:57:24;;;;;;;5.00;4.60;;;36.30;18.10;;;;;;5036792;28;20762;-85
2022/08/10 12:59:53;;;;;;;5.63;5.15;;;36.10;18.50;;;;;;5037391;28;20208;-85
2022/08/10 13:02:24;;;;;;;4.68;4.47;;;35.40;19.00;;;;;;5036891;28;20251;-84
2022/08/10 13:04:53;;;;;;;5.28;4.80;;;35.50;19.00;;;;;;5037545;28;20197;-86
2022/08/10 13:07:24;;;;;;;5.13;4.40;;;35.90;18.80;;;;;;5037476;28;20257;-86
2022/08/10 13:09:51;;;;;;;5.18;4.88;;;36.00;18.60;;;;;;5034000;28;20283;-85
2022/08/10 13:12:19;;;;;;;5.07;4.68;;;35.90;18.90;;;;;;5040598;28;20185;-88
2022/08/10 13:14:44;;;;;;;5.38;4.97;;;35.90;18.60;;;;;;5039528;28;20180;-86
2022/08/10 13:17:11;;;;;;;5.00;4.63;;;36.00;18.90;;;;;;5044669;28;20232;-85
2022/08/10 13:19:42;;;;;;;4.85;4.55;;;35.90;18.90;;;;;;5033453;28;20236;-86
2022/08/10 13:22:11;;;;;;;4.80;4.50;;;35.90;18.60;;;;;;5031586;28;20263;-85